Flight Track Log - Related Links

Times and Time Zones

All times are in EDT time to prevent confusion due to time zone crossing. See the UPS1122 flight status page for this flight to view local times or setup timezone preferences in your user account.


Time Position Orientation Groundspeed Altitude Reporting Facility
EDT Latitude Longitude Course Direction KTS MPH feet Rate Location/Type
Wed 06:25:09 AM 41.9417 -72.6997 311° West 153 176 1,500  Level Boston Center
Wed 06:25:40 AM 41.9561 -72.7219 311° West 153 176 2,900 2,440 Climbing Boston Center
Wed 06:26:40 AM 41.9997 -72.7781 316° Northwest 237 273 5,200 3,025 Climbing Boston Center
Wed 06:27:41 AM 42.0494 -72.8456 315° West 260 299 9,000 2,420 Climbing Boston Center
Wed 06:28:39 AM 42.0953 -72.9131 312° West 296 341 10,000 617 Climbing Boston Center
Wed 06:29:28 AM 42.1531 -72.9944 314° West 346 398 10,100  Climbing Boston Center
Wed 06:30:28 AM 42.2067 -73.0903 307° West 328 377 10,000 -50 Descending Boston Center
Wed 06:31:29 AM 42.2564 -73.1806 307° West 262 302 10,000  Level Boston Center
Wed 06:32:29 AM 42.2953 -73.2653 302° West 264 304 10,000 -198 Level Boston Center
Wed 06:33:30 AM 42.3364 -73.3528 302° West 271 312 9,600 -934 Descending Boston Center
Wed 06:34:31 AM 42.3794 -73.4322 306° West 269 310 8,100 -1,438 Descending Boston Center
Wed 06:35:31 AM 42.4203 -73.5172 303° West 264 304 6,700 -1,388 Descending Boston Center
Wed 06:36:32 AM 42.4592 -73.5967 304° West 253 291 5,300 -1,672 Descending Boston Center
Wed 06:37:33 AM 42.4978 -73.6736 304° West 250 288 3,300 -1,388 Descending Boston Center
Wed 06:38:33 AM 42.5344 -73.7558 301° West 251 289 2,500 -397 Descending Boston Center
Wed 06:39:34 AM 42.5756 -73.8019 320° Northwest 168 193 2,500  Level Boston Center
Wed 06:40:34 AM 42.6194 -73.8000 North 146 168 2,500 -331 Level Boston Center
Wed 06:41:41 AM 42.6589 -73.8036 356° North 135 155 1,800 -609 Descending Boston Center
Wed 06:42:42 AM 42.6903 -73.8044 359° North 107 123 1,200 -574 Descending Boston Center
Wed 06:43:36 AM 42.7172 -73.8050 359° North 98 113 700 -556 Descending Boston Center

Login

Don't have an account? Register now (free) for customized features, flight alerts, and more!